sensor_id;sensor_type;location;lat;lon;timestamp;P1;durP1;ratioP1;P2;durP2;ratioP2
73150;SDS011;61354;50.758;6.106;2023-02-01T00:01:23;15.15;;;6.47;;
73150;SDS011;61354;50.758;6.106;2023-02-01T00:03:49;21.08;;;7.55;;
73150;SDS011;61354;50.758;6.106;2023-02-01T00:06:14;13.15;;;4.85;;
73150;SDS011;61354;50.758;6.106;2023-02-01T00:08:40;13.93;;;6.32;;
73150;SDS011;61354;50.758;6.106;2023-02-01T00:11:09;10.90;;;5.35;;
73150;SDS011;61354;50.758;6.106;2023-02-01T00:13:38;14.35;;;6.65;;
73150;SDS011;61354;50.758;6.106;2023-02-01T00:16:06;11.07;;;6.22;;
73150;SDS011;61354;50.758;6.106;2023-02-01T00:18:37;13.07;;;5.15;;
73150;SDS011;61354;50.758;6.106;2023-02-01T00:21:03;10.40;;;5.32;;
73150;SDS011;61354;50.758;6.106;2023-02-01T00:23:31;9.63;;;5.05;;
73150;SDS011;61354;50.758;6.106;2023-02-01T00:25:59;12.65;;;5.22;;
73150;SDS011;61354;50.758;6.106;2023-02-01T00:28:26;12.35;;;5.57;;
73150;SDS011;61354;50.758;6.106;2023-02-01T00:30:55;13.10;;;5.40;;
73150;SDS011;61354;50.758;6.106;2023-02-01T00:33:22;13.88;;;5.60;;
73150;SDS011;61354;50.758;6.106;2023-02-01T00:35:48;14.23;;;6.30;;
73150;SDS011;61354;50.758;6.106;2023-02-01T00:38:14;14.45;;;5.53;;
73150;SDS011;61354;50.758;6.106;2023-02-01T00:40:39;14.68;;;5.50;;
73150;SDS011;61354;50.758;6.106;2023-02-01T00:43:05;13.43;;;5.60;;
73150;SDS011;61354;50.758;6.106;2023-02-01T00:45:30;11.10;;;5.15;;
73150;SDS011;61354;50.758;6.106;2023-02-01T00:47:56;11.82;;;5.50;;
73150;SDS011;61354;50.758;6.106;2023-02-01T00:50:21;13.40;;;4.78;;
73150;SDS011;61354;50.758;6.106;2023-02-01T00:52:47;9.38;;;5.50;;
73150;SDS011;61354;50.758;6.106;2023-02-01T00:55:12;10.20;;;5.38;;
73150;SDS011;61354;50.758;6.106;2023-02-01T00:57:38;12.18;;;6.57;;
73150;SDS011;61354;50.758;6.106;2023-02-01T01:00:04;11.68;;;4.95;;
73150;SDS011;61354;50.758;6.106;2023-02-01T01:02:29;14.98;;;5.53;;
73150;SDS011;61354;50.758;6.106;2023-02-01T01:04:55;11.43;;;4.90;;
73150;SDS011;61354;50.758;6.106;2023-02-01T01:07:20;11.20;;;5.30;;
73150;SDS011;61354;50.758;6.106;2023-02-01T01:09:46;11.32;;;5.40;;
73150;SDS011;61354;50.758;6.106;2023-02-01T01:12:12;11.10;;;5.47;;
73150;SDS011;61354;50.758;6.106;2023-02-01T01:14:37;13.70;;;4.63;;
73150;SDS011;61354;50.758;6.106;2023-02-01T01:17:03;12.30;;;4.80;;
73150;SDS011;61354;50.758;6.106;2023-02-01T01:19:28;10.82;;;5.10;;
73150;SDS011;61354;50.758;6.106;2023-02-01T01:21:54;12.50;;;4.15;;
73150;SDS011;61354;50.758;6.106;2023-02-01T01:24:19;11.25;;;5.25;;
73150;SDS011;61354;50.758;6.106;2023-02-01T01:26:45;11.02;;;4.47;;
73150;SDS011;61354;50.758;6.106;2023-02-01T01:29:10;16.17;;;5.13;;
73150;SDS011;61354;50.758;6.106;2023-02-01T01:31:36;10.90;;;3.63;;
73150;SDS011;61354;50.758;6.106;2023-02-01T01:34:02;11.25;;;4.50;;
73150;SDS011;61354;50.758;6.106;2023-02-01T01:36:28;11.73;;;4.93;;
73150;SDS011;61354;50.758;6.106;2023-02-01T01:38:54;11.32;;;4.53;;
73150;SDS011;61354;50.758;6.106;2023-02-01T01:41:23;14.15;;;4.97;;
73150;SDS011;61354;50.758;6.106;2023-02-01T01:43:52;12.65;;;5.38;;
73150;SDS011;61354;50.758;6.106;2023-02-01T01:46:19;9.20;;;4.30;;
73150;SDS011;61354;50.758;6.106;2023-02-01T01:48:48;8.25;;;3.25;;
73150;SDS011;61354;50.758;6.106;2023-02-01T01:51:19;10.02;;;4.10;;
73150;SDS011;61354;50.758;6.106;2023-02-01T01:53:50;10.70;;;4.18;;
73150;SDS011;61354;50.758;6.106;2023-02-01T01:56:38;14.68;;;4.65;;
73150;SDS011;61354;50.758;6.106;2023-02-01T01:59:04;10.70;;;4.47;;
73150;SDS011;61354;50.758;6.106;2023-02-01T02:01:30;10.93;;;4.50;;
73150;SDS011;61354;50.758;6.106;2023-02-01T02:03:56;9.48;;;4.57;;
73150;SDS011;61354;50.758;6.106;2023-02-01T02:06:29;9.30;;;4.30;;
73150;SDS011;61354;50.758;6.106;2023-02-01T02:09:00;9.73;;;4.05;;
73150;SDS011;61354;50.758;6.106;2023-02-01T02:11:25;10.23;;;4.10;;
73150;SDS011;61354;50.758;6.106;2023-02-01T02:13:52;7.93;;;4.18;;
73150;SDS011;61354;50.758;6.106;2023-02-01T02:16:23;10.32;;;4.28;;
73150;SDS011;61354;50.758;6.106;2023-02-01T02:19:09;8.85;;;4.47;;
73150;SDS011;61354;50.758;6.106;2023-02-01T02:27:43;10.80;;;3.92;;
73150;SDS011;61354;50.758;6.106;2023-02-01T02:39:05;11.73;;;4.30;;
73150;SDS011;61354;50.758;6.106;2023-02-01T02:44:45;13.23;;;4.25;;
73150;SDS011;61354;50.758;6.106;2023-02-01T02:50:55;10.30;;;4.20;;
73150;SDS011;61354;50.758;6.106;2023-02-01T02:53:56;12.55;;;4.60;;
73150;SDS011;61354;50.758;6.106;2023-02-01T02:56:44;14.82;;;5.10;;
73150;SDS011;61354;50.758;6.106;2023-02-01T02:59:28;14.20;;;5.57;;
73150;SDS011;61354;50.758;6.106;2023-02-01T03:02:14;14.52;;;5.43;;
73150;SDS011;61354;50.758;6.106;2023-02-01T03:04:59;13.57;;;5.22;;
73150;SDS011;61354;50.758;6.106;2023-02-01T03:15:53;11.85;;;5.72;;
73150;SDS011;61354;50.758;6.106;2023-02-01T03:18:48;11.15;;;4.88;;
73150;SDS011;61354;50.758;6.106;2023-02-01T03:21:20;10.45;;;4.63;;
73150;SDS011;61354;50.758;6.106;2023-02-01T03:23:50;15.00;;;4.63;;
73150;SDS011;61354;50.758;6.106;2023-02-01T03:26:20;11.50;;;4.07;;
73150;SDS011;61354;50.758;6.106;2023-02-01T03:28:52;11.38;;;5.03;;
73150;SDS011;61354;50.758;6.106;2023-02-01T03:31:22;10.52;;;4.63;;
73150;SDS011;61354;50.758;6.106;2023-02-01T03:33:49;12.77;;;4.65;;
73150;SDS011;61354;50.758;6.106;2023-02-01T03:41:56;14.02;;;4.40;;
73150;SDS011;61354;50.758;6.106;2023-02-01T03:44:26;14.73;;;4.18;;
73150;SDS011;61354;50.758;6.106;2023-02-01T03:49:51;10.93;;;4.18;;
73150;SDS011;61354;50.758;6.106;2023-02-01T03:52:38;8.25;;;3.75;;
73150;SDS011;61354;50.758;6.106;2023-02-01T03:55:08;12.13;;;4.38;;
73150;SDS011;61354;50.758;6.106;2023-02-01T03:57:37;10.68;;;3.72;;
73150;SDS011;61354;50.758;6.106;2023-02-01T04:00:07;10.18;;;3.63;;
73150;SDS011;61354;50.758;6.106;2023-02-01T04:02:47;11.20;;;3.58;;
73150;SDS011;61354;50.758;6.106;2023-02-01T04:05:13;11.85;;;4.32;;
73150;SDS011;61354;50.758;6.106;2023-02-01T04:07:39;5.45;;;2.65;;
73150;SDS011;61354;50.758;6.106;2023-02-01T04:10:04;6.75;;;3.08;;
73150;SDS011;61354;50.758;6.106;2023-02-01T04:12:30;10.98;;;3.13;;
73150;SDS011;61354;50.758;6.106;2023-02-01T04:14:56;13.75;;;3.05;;
73150;SDS011;61354;50.758;6.106;2023-02-01T04:17:21;8.60;;;2.58;;
73150;SDS011;61354;50.758;6.106;2023-02-01T04:19:47;10.15;;;2.92;;
73150;SDS011;61354;50.758;6.106;2023-02-01T04:22:12;6.50;;;2.03;;
73150;SDS011;61354;50.758;6.106;2023-02-01T04:24:38;5.18;;;2.13;;
73150;SDS011;61354;50.758;6.106;2023-02-01T04:27:03;5.70;;;2.35;;
73150;SDS011;61354;50.758;6.106;2023-02-01T04:29:29;9.50;;;2.30;;
73150;SDS011;61354;50.758;6.106;2023-02-01T04:31:55;8.65;;;2.45;;
73150;SDS011;61354;50.758;6.106;2023-02-01T04:34:20;5.95;;;1.92;;
73150;SDS011;61354;50.758;6.106;2023-02-01T04:36:47;8.77;;;2.10;;
73150;SDS011;61354;50.758;6.106;2023-02-01T04:39:13;10.02;;;2.28;;
73150;SDS011;61354;50.758;6.106;2023-02-01T04:41:39;8.77;;;3.15;;
73150;SDS011;61354;50.758;6.106;2023-02-01T04:44:04;11.18;;;2.70;;
73150;SDS011;61354;50.758;6.106;2023-02-01T04:46:30;8.50;;;2.33;;
73150;SDS011;61354;50.758;6.106;2023-02-01T04:48:56;8.02;;;2.03;;
73150;SDS011;61354;50.758;6.106;2023-02-01T04:51:21;4.70;;;2.08;;
73150;SDS011;61354;50.758;6.106;2023-02-01T04:53:47;7.45;;;2.65;;
73150;SDS011;61354;50.758;6.106;2023-02-01T04:56:12;7.65;;;2.53;;
73150;SDS011;61354;50.758;6.106;2023-02-01T04:58:38;6.88;;;1.90;;
73150;SDS011;61354;50.758;6.106;2023-02-01T05:01:04;10.20;;;2.25;;
73150;SDS011;61354;50.758;6.106;2023-02-01T05:03:32;7.57;;;2.50;;
73150;SDS011;61354;50.758;6.106;2023-02-01T05:05:58;10.98;;;2.47;;
73150;SDS011;61354;50.758;6.106;2023-02-01T05:08:25;7.57;;;2.15;;
73150;SDS011;61354;50.758;6.106;2023-02-01T05:10:51;6.97;;;2.03;;
73150;SDS011;61354;50.758;6.106;2023-02-01T05:13:17;9.88;;;2.63;;
73150;SDS011;61354;50.758;6.106;2023-02-01T05:16:01;11.30;;;2.70;;
73150;SDS011;61354;50.758;6.106;2023-02-01T05:18:26;5.10;;;2.05;;
73150;SDS011;61354;50.758;6.106;2023-02-01T05:20:52;8.32;;;2.30;;
73150;SDS011;61354;50.758;6.106;2023-02-01T05:23:18;4.05;;;1.23;;
73150;SDS011;61354;50.758;6.106;2023-02-01T05:25:43;7.05;;;2.83;;
73150;SDS011;61354;50.758;6.106;2023-02-01T05:28:09;6.85;;;2.15;;
73150;SDS011;61354;50.758;6.106;2023-02-01T05:30:34;7.05;;;2.42;;
73150;SDS011;61354;50.758;6.106;2023-02-01T05:33:00;8.10;;;2.58;;
73150;SDS011;61354;50.758;6.106;2023-02-01T05:35:27;10.80;;;2.40;;
73150;SDS011;61354;50.758;6.106;2023-02-01T05:37:52;8.10;;;1.90;;
73150;SDS011;61354;50.758;6.106;2023-02-01T05:40:18;12.23;;;2.58;;
73150;SDS011;61354;50.758;6.106;2023-02-01T05:42:43;8.18;;;2.53;;
73150;SDS011;61354;50.758;6.106;2023-02-01T05:45:09;8.45;;;2.85;;
73150;SDS011;61354;50.758;6.106;2023-02-01T05:47:35;7.43;;;2.70;;
73150;SDS011;61354;50.758;6.106;2023-02-01T05:50:01;10.90;;;3.20;;
73150;SDS011;61354;50.758;6.106;2023-02-01T05:52:26;9.40;;;2.15;;
73150;SDS011;61354;50.758;6.106;2023-02-01T05:54:52;7.57;;;2.20;;
73150;SDS011;61354;50.758;6.106;2023-02-01T05:57:18;7.03;;;1.83;;
73150;SDS011;61354;50.758;6.106;2023-02-01T05:59:43;7.47;;;2.30;;
73150;SDS011;61354;50.758;6.106;2023-02-01T06:02:12;9.25;;;2.63;;
73150;SDS011;61354;50.758;6.106;2023-02-01T06:04:38;8.52;;;2.20;;
73150;SDS011;61354;50.758;6.106;2023-02-01T06:07:07;8.40;;;2.33;;
73150;SDS011;61354;50.758;6.106;2023-02-01T06:09:34;10.57;;;2.92;;
73150;SDS011;61354;50.758;6.106;2023-02-01T06:12:00;6.28;;;2.03;;
73150;SDS011;61354;50.758;6.106;2023-02-01T06:14:26;8.88;;;1.90;;
73150;SDS011;61354;50.758;6.106;2023-02-01T06:16:53;11.57;;;2.65;;
73150;SDS011;61354;50.758;6.106;2023-02-01T06:19:19;7.72;;;2.67;;
73150;SDS011;61354;50.758;6.106;2023-02-01T06:21:45;7.72;;;2.58;;
73150;SDS011;61354;50.758;6.106;2023-02-01T06:24:10;6.50;;;2.10;;
73150;SDS011;61354;50.758;6.106;2023-02-01T06:26:36;11.32;;;2.60;;
73150;SDS011;61354;50.758;6.106;2023-02-01T06:29:02;6.82;;;1.77;;
73150;SDS011;61354;50.758;6.106;2023-02-01T06:31:28;7.82;;;1.90;;
73150;SDS011;61354;50.758;6.106;2023-02-01T06:33:53;10.02;;;2.45;;
73150;SDS011;61354;50.758;6.106;2023-02-01T06:36:19;13.50;;;2.35;;
73150;SDS011;61354;50.758;6.106;2023-02-01T06:38:46;6.85;;;1.90;;
73150;SDS011;61354;50.758;6.106;2023-02-01T06:41:13;12.02;;;2.10;;
73150;SDS011;61354;50.758;6.106;2023-02-01T06:43:39;7.68;;;2.03;;
73150;SDS011;61354;50.758;6.106;2023-02-01T06:46:05;7.65;;;2.42;;
73150;SDS011;61354;50.758;6.106;2023-02-01T06:48:33;8.13;;;2.40;;
73150;SDS011;61354;50.758;6.106;2023-02-01T06:50:59;5.03;;;1.40;;
73150;SDS011;61354;50.758;6.106;2023-02-01T06:53:25;9.13;;;2.20;;
73150;SDS011;61354;50.758;6.106;2023-02-01T06:55:54;9.20;;;2.10;;
73150;SDS011;61354;50.758;6.106;2023-02-01T06:58:22;9.48;;;1.90;;
73150;SDS011;61354;50.758;6.106;2023-02-01T07:00:48;6.80;;;2.50;;
73150;SDS011;61354;50.758;6.106;2023-02-01T07:03:13;10.82;;;2.42;;
73150;SDS011;61354;50.758;6.106;2023-02-01T07:05:39;7.18;;;1.80;;
73150;SDS011;61354;50.758;6.106;2023-02-01T07:08:05;8.40;;;2.53;;
73150;SDS011;61354;50.758;6.106;2023-02-01T07:10:30;6.30;;;2.03;;
73150;SDS011;61354;50.758;6.106;2023-02-01T07:12:56;8.10;;;2.55;;
73150;SDS011;61354;50.758;6.106;2023-02-01T07:15:23;11.25;;;1.98;;
73150;SDS011;61354;50.758;6.106;2023-02-01T07:17:48;10.50;;;2.20;;
73150;SDS011;61354;50.758;6.106;2023-02-01T07:20:14;9.32;;;2.97;;
73150;SDS011;61354;50.758;6.106;2023-02-01T07:22:40;10.35;;;2.30;;
73150;SDS011;61354;50.758;6.106;2023-02-01T07:25:06;6.47;;;1.88;;
73150;SDS011;61354;50.758;6.106;2023-02-01T07:27:36;8.63;;;2.53;;
73150;SDS011;61354;50.758;6.106;2023-02-01T07:30:02;7.82;;;2.10;;
73150;SDS011;61354;50.758;6.106;2023-02-01T07:32:29;7.63;;;2.50;;
73150;SDS011;61354;50.758;6.106;2023-02-01T07:34:55;6.10;;;2.15;;
73150;SDS011;61354;50.758;6.106;2023-02-01T07:37:22;10.25;;;2.53;;
73150;SDS011;61354;50.758;6.106;2023-02-01T07:39:49;5.47;;;1.70;;
73150;SDS011;61354;50.758;6.106;2023-02-01T07:42:15;10.05;;;2.22;;
73150;SDS011;61354;50.758;6.106;2023-02-01T07:44:41;11.13;;;2.33;;
73150;SDS011;61354;50.758;6.106;2023-02-01T07:47:06;9.75;;;2.08;;
73150;SDS011;61354;50.758;6.106;2023-02-01T07:49:32;10.88;;;2.33;;
73150;SDS011;61354;50.758;6.106;2023-02-01T07:51:57;10.38;;;2.72;;
73150;SDS011;61354;50.758;6.106;2023-02-01T07:54:23;13.60;;;2.97;;
73150;SDS011;61354;50.758;6.106;2023-02-01T07:56:49;9.93;;;2.15;;
73150;SDS011;61354;50.758;6.106;2023-02-01T07:59:14;9.07;;;2.25;;
73150;SDS011;61354;50.758;6.106;2023-02-01T08:01:41;10.38;;;1.85;;
73150;SDS011;61354;50.758;6.106;2023-02-01T08:04:07;5.38;;;1.90;;
73150;SDS011;61354;50.758;6.106;2023-02-01T08:06:36;8.35;;;2.28;;
73150;SDS011;61354;50.758;6.106;2023-02-01T08:09:02;7.38;;;2.15;;
73150;SDS011;61354;50.758;6.106;2023-02-01T08:11:29;10.27;;;2.58;;
73150;SDS011;61354;50.758;6.106;2023-02-01T08:13:55;7.40;;;2.50;;
73150;SDS011;61354;50.758;6.106;2023-02-01T08:16:21;12.82;;;2.67;;
73150;SDS011;61354;50.758;6.106;2023-02-01T08:18:48;6.20;;;1.88;;
73150;SDS011;61354;50.758;6.106;2023-02-01T08:21:15;10.00;;;2.17;;
73150;SDS011;61354;50.758;6.106;2023-02-01T08:23:43;9.07;;;2.20;;
73150;SDS011;61354;50.758;6.106;2023-02-01T08:26:11;5.05;;;2.10;;
73150;SDS011;61354;50.758;6.106;2023-02-01T08:28:41;7.97;;;2.10;;
73150;SDS011;61354;50.758;6.106;2023-02-01T08:31:08;9.50;;;1.92;;
73150;SDS011;61354;50.758;6.106;2023-02-01T08:33:36;11.52;;;1.77;;
73150;SDS011;61354;50.758;6.106;2023-02-01T08:36:03;5.80;;;2.10;;
73150;SDS011;61354;50.758;6.106;2023-02-01T08:38:29;11.05;;;2.33;;
73150;SDS011;61354;50.758;6.106;2023-02-01T08:40:55;7.15;;;2.10;;
73150;SDS011;61354;50.758;6.106;2023-02-01T08:43:21;3.78;;;1.30;;
73150;SDS011;61354;50.758;6.106;2023-02-01T08:45:46;6.63;;;1.95;;
73150;SDS011;61354;50.758;6.106;2023-02-01T08:48:12;7.82;;;2.55;;
73150;SDS011;61354;50.758;6.106;2023-02-01T08:50:38;9.35;;;1.80;;
73150;SDS011;61354;50.758;6.106;2023-02-01T08:53:03;13.00;;;2.30;;
73150;SDS011;61354;50.758;6.106;2023-02-01T08:55:29;6.82;;;1.63;;
73150;SDS011;61354;50.758;6.106;2023-02-01T08:57:55;8.50;;;2.10;;
73150;SDS011;61354;50.758;6.106;2023-02-01T09:00:21;7.10;;;1.90;;
73150;SDS011;61354;50.758;6.106;2023-02-01T09:02:46;11.10;;;2.17;;
73150;SDS011;61354;50.758;6.106;2023-02-01T09:05:12;8.45;;;1.83;;
73150;SDS011;61354;50.758;6.106;2023-02-01T09:07:39;6.93;;;2.33;;
73150;SDS011;61354;50.758;6.106;2023-02-01T09:10:05;14.93;;;2.53;;
73150;SDS011;61354;50.758;6.106;2023-02-01T09:12:32;7.80;;;2.33;;
73150;SDS011;61354;50.758;6.106;2023-02-01T09:14:58;9.80;;;1.95;;
73150;SDS011;61354;50.758;6.106;2023-02-01T09:17:25;9.40;;;2.78;;
73150;SDS011;61354;50.758;6.106;2023-02-01T09:19:52;6.47;;;2.00;;
73150;SDS011;61354;50.758;6.106;2023-02-01T09:22:17;4.80;;;1.55;;
73150;SDS011;61354;50.758;6.106;2023-02-01T09:24:43;7.22;;;1.75;;
73150;SDS011;61354;50.758;6.106;2023-02-01T09:27:09;6.43;;;2.03;;
73150;SDS011;61354;50.758;6.106;2023-02-01T09:29:35;4.05;;;1.58;;
73150;SDS011;61354;50.758;6.106;2023-02-01T09:32:00;11.65;;;2.20;;
73150;SDS011;61354;50.758;6.106;2023-02-01T09:34:26;10.55;;;2.65;;
73150;SDS011;61354;50.758;6.106;2023-02-01T09:36:51;4.57;;;1.23;;
73150;SDS011;61354;50.758;6.106;2023-02-01T09:39:17;7.13;;;1.80;;
73150;SDS011;61354;50.758;6.106;2023-02-01T09:44:53;8.40;;;2.83;;
73150;SDS011;61354;50.758;6.106;2023-02-01T09:47:24;8.35;;;2.03;;
73150;SDS011;61354;50.758;6.106;2023-02-01T09:55:30;11.98;;;2.80;;
73150;SDS011;61354;50.758;6.106;2023-02-01T09:58:03;7.80;;;2.38;;
73150;SDS011;61354;50.758;6.106;2023-02-01T10:00:34;8.82;;;2.05;;
73150;SDS011;61354;50.758;6.106;2023-02-01T10:03:02;8.05;;;1.92;;
73150;SDS011;61354;50.758;6.106;2023-02-01T10:08:57;11.93;;;2.85;;
73150;SDS011;61354;50.758;6.106;2023-02-01T10:13:49;6.28;;;2.20;;
73150;SDS011;61354;50.758;6.106;2023-02-01T10:16:43;12.02;;;2.33;;
73150;SDS011;61354;50.758;6.106;2023-02-01T10:24:26;5.05;;;1.25;;
73150;SDS011;61354;50.758;6.106;2023-02-01T10:29:36;6.75;;;2.00;;
73150;SDS011;61354;50.758;6.106;2023-02-01T10:32:15;7.10;;;2.22;;
73150;SDS011;61354;50.758;6.106;2023-02-01T10:34:43;8.27;;;1.75;;
73150;SDS011;61354;50.758;6.106;2023-02-01T10:37:30;7.00;;;2.00;;
73150;SDS011;61354;50.758;6.106;2023-02-01T10:39:59;9.00;;;2.05;;
73150;SDS011;61354;50.758;6.106;2023-02-01T10:42:28;5.20;;;1.73;;
73150;SDS011;61354;50.758;6.106;2023-02-01T10:44:56;7.55;;;2.10;;
73150;SDS011;61354;50.758;6.106;2023-02-01T10:47:24;9.88;;;2.20;;
73150;SDS011;61354;50.758;6.106;2023-02-01T10:49:58;4.57;;;1.40;;
73150;SDS011;61354;50.758;6.106;2023-02-01T10:52:48;8.02;;;2.70;;
73150;SDS011;61354;50.758;6.106;2023-02-01T10:55:35;9.57;;;1.92;;
73150;SDS011;61354;50.758;6.106;2023-02-01T10:58:01;10.43;;;2.45;;
73150;SDS011;61354;50.758;6.106;2023-02-01T11:00:41;11.13;;;2.97;;
73150;SDS011;61354;50.758;6.106;2023-02-01T11:05:53;6.97;;;1.98;;
73150;SDS011;61354;50.758;6.106;2023-02-01T11:08:20;7.40;;;1.95;;
73150;SDS011;61354;50.758;6.106;2023-02-01T11:10:46;8.70;;;1.98;;
73150;SDS011;61354;50.758;6.106;2023-02-01T11:13:16;6.95;;;1.98;;
73150;SDS011;61354;50.758;6.106;2023-02-01T11:15:46;8.18;;;2.00;;
73150;SDS011;61354;50.758;6.106;2023-02-01T11:18:25;10.32;;;2.45;;
73150;SDS011;61354;50.758;6.106;2023-02-01T11:20:53;7.95;;;1.92;;
73150;SDS011;61354;50.758;6.106;2023-02-01T11:23:23;7.03;;;1.95;;
73150;SDS011;61354;50.758;6.106;2023-02-01T11:25:54;9.60;;;2.20;;
73150;SDS011;61354;50.758;6.106;2023-02-01T11:28:23;6.50;;;1.70;;
73150;SDS011;61354;50.758;6.106;2023-02-01T11:30:53;5.90;;;1.83;;
73150;SDS011;61354;50.758;6.106;2023-02-01T11:33:23;9.00;;;1.98;;
73150;SDS011;61354;50.758;6.106;2023-02-01T11:35:55;3.88;;;1.60;;
73150;SDS011;61354;50.758;6.106;2023-02-01T11:38:30;8.90;;;2.38;;
73150;SDS011;61354;50.758;6.106;2023-02-01T11:43:51;10.40;;;2.53;;
73150;SDS011;61354;50.758;6.106;2023-02-01T11:48:57;7.50;;;2.30;;
73150;SDS011;61354;50.758;6.106;2023-02-01T11:51:50;12.02;;;2.67;;
73150;SDS011;61354;50.758;6.106;2023-02-01T11:56:56;11.10;;;2.67;;
73150;SDS011;61354;50.758;6.106;2023-02-01T11:59:45;5.57;;;1.73;;
73150;SDS011;61354;50.758;6.106;2023-02-01T12:02:25;4.90;;;1.65;;
73150;SDS011;61354;50.758;6.106;2023-02-01T12:05:08;7.40;;;2.08;;
73150;SDS011;61354;50.758;6.106;2023-02-01T12:38:27;12.32;;;2.08;;
73150;SDS011;61354;50.758;6.106;2023-02-01T12:46:33;6.25;;;1.60;;
73150;SDS011;61354;50.758;6.106;2023-02-01T12:49:06;8.90;;;1.95;;
73150;SDS011;61354;50.758;6.106;2023-02-01T12:51:40;8.27;;;2.03;;
73150;SDS011;61354;50.758;6.106;2023-02-01T12:54:20;7.80;;;2.03;;
73150;SDS011;61354;50.758;6.106;2023-02-01T12:56:53;6.15;;;1.77;;
73150;SDS011;61354;50.758;6.106;2023-02-01T12:59:34;8.05;;;2.00;;
73150;SDS011;61354;50.758;6.106;2023-02-01T13:07:57;8.07;;;1.67;;
73150;SDS011;61354;50.758;6.106;2023-02-01T13:15:43;9.50;;;1.75;;
73150;SDS011;61354;50.758;6.106;2023-02-01T13:18:14;9.25;;;1.73;;
73150;SDS011;61354;50.758;6.106;2023-02-01T13:20:58;6.45;;;1.77;;
73150;SDS011;61354;50.758;6.106;2023-02-01T13:23:30;9.18;;;1.83;;
73150;SDS011;61354;50.758;6.106;2023-02-01T13:25:59;6.72;;;1.55;;
73150;SDS011;61354;50.758;6.106;2023-02-01T13:33:55;5.03;;;1.67;;
73150;SDS011;61354;50.758;6.106;2023-02-01T13:36:46;7.35;;;1.50;;
73150;SDS011;61354;50.758;6.106;2023-02-01T13:42:27;7.75;;;2.35;;
73150;SDS011;61354;50.758;6.106;2023-02-01T13:44:56;6.75;;;1.80;;
73150;SDS011;61354;50.758;6.106;2023-02-01T13:47:30;7.38;;;1.65;;
73150;SDS011;61354;50.758;6.106;2023-02-01T13:49:59;8.50;;;2.03;;
73150;SDS011;61354;50.758;6.106;2023-02-01T13:52:50;9.25;;;1.77;;
73150;SDS011;61354;50.758;6.106;2023-02-01T14:00:30;3.97;;;1.48;;
73150;SDS011;61354;50.758;6.106;2023-02-01T14:03:11;4.72;;;1.35;;
73150;SDS011;61354;50.758;6.106;2023-02-01T14:08:36;6.72;;;3.05;;
73150;SDS011;61354;50.758;6.106;2023-02-01T14:11:04;7.68;;;1.65;;
73150;SDS011;61354;50.758;6.106;2023-02-01T14:13:40;5.60;;;1.52;;
73150;SDS011;61354;50.758;6.106;2023-02-01T14:16:14;5.88;;;1.58;;
73150;SDS011;61354;50.758;6.106;2023-02-01T14:21:25;5.60;;;1.27;;
73150;SDS011;61354;50.758;6.106;2023-02-01T14:29:22;6.55;;;1.48;;
73150;SDS011;61354;50.758;6.106;2023-02-01T14:34:34;4.43;;;1.50;;
73150;SDS011;61354;50.758;6.106;2023-02-01T14:44:50;3.78;;;1.77;;
73150;SDS011;61354;50.758;6.106;2023-02-01T14:52:28;3.80;;;1.27;;
73150;SDS011;61354;50.758;6.106;2023-02-01T14:55:00;6.65;;;1.38;;
73150;SDS011;61354;50.758;6.106;2023-02-01T14:57:30;5.10;;;1.27;;
73150;SDS011;61354;50.758;6.106;2023-02-01T15:00:06;6.50;;;1.60;;
73150;SDS011;61354;50.758;6.106;2023-02-01T15:02:52;5.00;;;1.60;;
73150;SDS011;61354;50.758;6.106;2023-02-01T15:10:13;4.63;;;1.20;;
73150;SDS011;61354;50.758;6.106;2023-02-01T15:12:40;4.38;;;1.38;;
73150;SDS011;61354;50.758;6.106;2023-02-01T15:15:19;8.38;;;1.45;;
73150;SDS011;61354;50.758;6.106;2023-02-01T15:17:57;3.95;;;1.20;;
73150;SDS011;61354;50.758;6.106;2023-02-01T15:20:30;7.18;;;1.88;;
73150;SDS011;61354;50.758;6.106;2023-02-01T15:22:58;6.00;;;1.77;;
73150;SDS011;61354;50.758;6.106;2023-02-01T15:25:25;5.00;;;1.60;;
73150;SDS011;61354;50.758;6.106;2023-02-01T15:27:53;6.13;;;1.42;;
73150;SDS011;61354;50.758;6.106;2023-02-01T15:30:21;6.50;;;1.60;;
73150;SDS011;61354;50.758;6.106;2023-02-01T15:32:49;3.88;;;1.40;;
73150;SDS011;61354;50.758;6.106;2023-02-01T15:35:35;10.10;;;2.28;;
73150;SDS011;61354;50.758;6.106;2023-02-01T15:39:05;3.17;;;1.45;;
73150;SDS011;61354;50.758;6.106;2023-02-01T15:41:13;6.28;;;1.60;;
73150;SDS011;61354;50.758;6.106;2023-02-01T15:46:18;9.05;;;1.63;;
73150;SDS011;61354;50.758;6.106;2023-02-01T15:48:48;6.07;;;1.70;;
73150;SDS011;61354;50.758;6.106;2023-02-01T15:51:18;7.93;;;2.20;;
73150;SDS011;61354;50.758;6.106;2023-02-01T15:53:48;4.53;;;1.90;;
73150;SDS011;61354;50.758;6.106;2023-02-01T15:56:38;5.20;;;1.73;;
73150;SDS011;61354;50.758;6.106;2023-02-01T15:59:12;6.78;;;1.73;;
73150;SDS011;61354;50.758;6.106;2023-02-01T16:01:41;4.95;;;1.35;;
73150;SDS011;61354;50.758;6.106;2023-02-01T16:04:14;3.85;;;1.60;;
73150;SDS011;61354;50.758;6.106;2023-02-01T16:06:53;3.47;;;1.30;;
73150;SDS011;61354;50.758;6.106;2023-02-01T16:09:23;5.13;;;1.70;;
73150;SDS011;61354;50.758;6.106;2023-02-01T16:12:00;6.47;;;1.70;;
73150;SDS011;61354;50.758;6.106;2023-02-01T16:14:27;5.43;;;1.77;;
73150;SDS011;61354;50.758;6.106;2023-02-01T16:16:54;6.38;;;1.70;;
73150;SDS011;61354;50.758;6.106;2023-02-01T16:19:21;5.47;;;2.00;;
73150;SDS011;61354;50.758;6.106;2023-02-01T16:21:50;7.47;;;1.98;;
73150;SDS011;61354;50.758;6.106;2023-02-01T16:24:15;6.35;;;2.15;;
73150;SDS011;61354;50.758;6.106;2023-02-01T16:26:41;4.85;;;1.90;;
73150;SDS011;61354;50.758;6.106;2023-02-01T16:29:06;5.65;;;1.75;;
73150;SDS011;61354;50.758;6.106;2023-02-01T16:31:34;6.95;;;1.85;;
73150;SDS011;61354;50.758;6.106;2023-02-01T16:34:03;6.07;;;1.63;;
73150;SDS011;61354;50.758;6.106;2023-02-01T16:36:30;7.38;;;2.53;;
73150;SDS011;61354;50.758;6.106;2023-02-01T16:38:56;6.00;;;2.17;;
73150;SDS011;61354;50.758;6.106;2023-02-01T16:41:23;8.65;;;2.08;;
73150;SDS011;61354;50.758;6.106;2023-02-01T16:43:50;7.43;;;1.95;;
73150;SDS011;61354;50.758;6.106;2023-02-01T16:46:18;7.10;;;1.77;;
73150;SDS011;61354;50.758;6.106;2023-02-01T16:48:54;6.57;;;2.17;;
73150;SDS011;61354;50.758;6.106;2023-02-01T16:51:23;8.02;;;1.73;;
73150;SDS011;61354;50.758;6.106;2023-02-01T16:53:54;8.40;;;2.00;;
73150;SDS011;61354;50.758;6.106;2023-02-01T16:56:22;8.45;;;2.00;;
73150;SDS011;61354;50.758;6.106;2023-02-01T16:58:50;8.38;;;2.40;;
73150;SDS011;61354;50.758;6.106;2023-02-01T17:01:16;7.63;;;2.38;;
73150;SDS011;61354;50.758;6.106;2023-02-01T17:03:44;5.07;;;1.42;;
73150;SDS011;61354;50.758;6.106;2023-02-01T17:06:11;5.90;;;2.05;;
73150;SDS011;61354;50.758;6.106;2023-02-01T17:08:44;5.55;;;1.83;;
73150;SDS011;61354;50.758;6.106;2023-02-01T17:11:12;9.88;;;2.10;;
73150;SDS011;61354;50.758;6.106;2023-02-01T17:13:38;6.72;;;2.35;;
73150;SDS011;61354;50.758;6.106;2023-02-01T17:16:13;7.60;;;2.58;;
73150;SDS011;61354;50.758;6.106;2023-02-01T17:18:53;6.40;;;2.45;;
73150;SDS011;61354;50.758;6.106;2023-02-01T17:21:45;6.32;;;1.83;;
73150;SDS011;61354;50.758;6.106;2023-02-01T17:24:14;5.15;;;2.30;;
73150;SDS011;61354;50.758;6.106;2023-02-01T17:26:41;6.63;;;2.30;;
73150;SDS011;61354;50.758;6.106;2023-02-01T17:29:07;8.68;;;2.17;;
73150;SDS011;61354;50.758;6.106;2023-02-01T17:31:35;8.07;;;2.00;;
73150;SDS011;61354;50.758;6.106;2023-02-01T17:34:03;7.38;;;2.17;;
73150;SDS011;61354;50.758;6.106;2023-02-01T17:36:29;6.43;;;2.45;;
73150;SDS011;61354;50.758;6.106;2023-02-01T17:38:54;7.88;;;2.35;;
73150;SDS011;61354;50.758;6.106;2023-02-01T17:41:20;5.15;;;2.78;;
73150;SDS011;61354;50.758;6.106;2023-02-01T17:43:45;4.43;;;2.20;;